sensor_id;sensor_type;location;lat;lon;timestamp;P1;durP1;ratioP1;P2;durP2;ratioP2
77598;SDS011;66758;52.078;5.070;2023-02-20T00:00:41;18.20;;;7.95;;
77598;SDS011;66758;52.078;5.070;2023-02-20T00:03:07;16.17;;;8.90;;
77598;SDS011;66758;52.078;5.070;2023-02-20T00:05:33;16.80;;;7.23;;
77598;SDS011;66758;52.078;5.070;2023-02-20T00:07:59;15.52;;;7.80;;
77598;SDS011;66758;52.078;5.070;2023-02-20T00:10:25;17.60;;;7.70;;
77598;SDS011;66758;52.078;5.070;2023-02-20T00:12:51;19.70;;;8.23;;
77598;SDS011;66758;52.078;5.070;2023-02-20T00:15:17;18.98;;;8.95;;
77598;SDS011;66758;52.078;5.070;2023-02-20T00:17:46;24.83;;;8.33;;
77598;SDS011;66758;52.078;5.070;2023-02-20T00:20:13;16.98;;;7.97;;
77598;SDS011;66758;52.078;5.070;2023-02-20T00:22:40;16.27;;;8.15;;
77598;SDS011;66758;52.078;5.070;2023-02-20T00:25:06;18.20;;;8.03;;
77598;SDS011;66758;52.078;5.070;2023-02-20T00:27:31;16.83;;;7.40;;
77598;SDS011;66758;52.078;5.070;2023-02-20T00:29:57;16.60;;;7.27;;
77598;SDS011;66758;52.078;5.070;2023-02-20T00:32:23;17.75;;;8.20;;
77598;SDS011;66758;52.078;5.070;2023-02-20T00:34:48;19.70;;;8.10;;
77598;SDS011;66758;52.078;5.070;2023-02-20T00:37:14;16.88;;;7.45;;
77598;SDS011;66758;52.078;5.070;2023-02-20T00:39:39;18.27;;;7.77;;
77598;SDS011;66758;52.078;5.070;2023-02-20T00:42:05;17.80;;;7.70;;
77598;SDS011;66758;52.078;5.070;2023-02-20T00:44:30;17.80;;;9.07;;
77598;SDS011;66758;52.078;5.070;2023-02-20T00:46:56;16.27;;;7.63;;
77598;SDS011;66758;52.078;5.070;2023-02-20T00:49:21;14.23;;;8.40;;
77598;SDS011;66758;52.078;5.070;2023-02-20T00:51:47;19.33;;;8.35;;
77598;SDS011;66758;52.078;5.070;2023-02-20T00:54:13;16.47;;;8.37;;
77598;SDS011;66758;52.078;5.070;2023-02-20T00:56:39;18.85;;;8.13;;
77598;SDS011;66758;52.078;5.070;2023-02-20T00:59:05;20.33;;;9.07;;
77598;SDS011;66758;52.078;5.070;2023-02-20T01:01:31;17.92;;;8.35;;
77598;SDS011;66758;52.078;5.070;2023-02-20T01:03:57;20.17;;;9.77;;
77598;SDS011;66758;52.078;5.070;2023-02-20T01:06:23;17.63;;;9.07;;
77598;SDS011;66758;52.078;5.070;2023-02-20T01:08:48;17.57;;;8.30;;
77598;SDS011;66758;52.078;5.070;2023-02-20T01:11:14;17.43;;;9.07;;
77598;SDS011;66758;52.078;5.070;2023-02-20T01:13:39;20.70;;;9.50;;
77598;SDS011;66758;52.078;5.070;2023-02-20T01:16:05;22.73;;;9.20;;
77598;SDS011;66758;52.078;5.070;2023-02-20T01:18:31;22.88;;;9.00;;
77598;SDS011;66758;52.078;5.070;2023-02-20T01:20:57;19.97;;;9.17;;
77598;SDS011;66758;52.078;5.070;2023-02-20T01:23:22;16.15;;;9.40;;
77598;SDS011;66758;52.078;5.070;2023-02-20T01:25:48;18.40;;;9.97;;
77598;SDS011;66758;52.078;5.070;2023-02-20T01:28:14;20.40;;;9.77;;
77598;SDS011;66758;52.078;5.070;2023-02-20T01:30:41;20.83;;;10.43;;
77598;SDS011;66758;52.078;5.070;2023-02-20T01:33:06;21.58;;;10.05;;
77598;SDS011;66758;52.078;5.070;2023-02-20T01:35:32;21.63;;;10.05;;
77598;SDS011;66758;52.078;5.070;2023-02-20T01:37:58;23.17;;;10.43;;
77598;SDS011;66758;52.078;5.070;2023-02-20T01:40:25;23.63;;;11.63;;
77598;SDS011;66758;52.078;5.070;2023-02-20T01:42:52;23.10;;;11.98;;
77598;SDS011;66758;52.078;5.070;2023-02-20T01:47:51;30.75;;;11.50;;
77598;SDS011;66758;52.078;5.070;2023-02-20T01:50:20;28.73;;;12.82;;
77598;SDS011;66758;52.078;5.070;2023-02-20T01:52:51;36.25;;;14.05;;
77598;SDS011;66758;52.078;5.070;2023-02-20T01:55:22;32.13;;;15.45;;
77598;SDS011;66758;52.078;5.070;2023-02-20T01:57:56;31.73;;;13.80;;
77598;SDS011;66758;52.078;5.070;2023-02-20T02:00:25;29.63;;;15.02;;
77598;SDS011;66758;52.078;5.070;2023-02-20T02:02:54;30.35;;;12.77;;
77598;SDS011;66758;52.078;5.070;2023-02-20T02:05:31;36.08;;;15.98;;
77598;SDS011;66758;52.078;5.070;2023-02-20T02:07:59;30.30;;;15.13;;
77598;SDS011;66758;52.078;5.070;2023-02-20T02:10:28;35.10;;;16.33;;
77598;SDS011;66758;52.078;5.070;2023-02-20T02:12:58;40.83;;;16.88;;
77598;SDS011;66758;52.078;5.070;2023-02-20T02:15:24;33.30;;;15.50;;
77598;SDS011;66758;52.078;5.070;2023-02-20T02:26:05;34.72;;;16.27;;
77598;SDS011;66758;52.078;5.070;2023-02-20T02:37:01;40.22;;;18.45;;
77598;SDS011;66758;52.078;5.070;2023-02-20T02:44:53;43.53;;;19.20;;
77598;SDS011;66758;52.078;5.070;2023-02-20T02:50:16;44.10;;;19.30;;
77598;SDS011;66758;52.078;5.070;2023-02-20T02:52:49;50.95;;;20.58;;
77598;SDS011;66758;52.078;5.070;2023-02-20T02:55:27;42.80;;;20.10;;
77598;SDS011;66758;52.078;5.070;2023-02-20T02:57:55;44.47;;;19.60;;
77598;SDS011;66758;52.078;5.070;2023-02-20T03:08:20;47.33;;;18.88;;
77598;SDS011;66758;52.078;5.070;2023-02-20T03:10:56;45.90;;;19.20;;
77598;SDS011;66758;52.078;5.070;2023-02-20T03:13:25;37.42;;;18.45;;
77598;SDS011;66758;52.078;5.070;2023-02-20T03:16:13;42.70;;;19.13;;
77598;SDS011;66758;52.078;5.070;2023-02-20T03:18:42;40.25;;;19.05;;
77598;SDS011;66758;52.078;5.070;2023-02-20T03:21:11;40.95;;;19.45;;
77598;SDS011;66758;52.078;5.070;2023-02-20T03:23:43;38.40;;;18.57;;
77598;SDS011;66758;52.078;5.070;2023-02-20T03:26:14;43.30;;;19.58;;
77598;SDS011;66758;52.078;5.070;2023-02-20T03:28:57;46.10;;;17.92;;
77598;SDS011;66758;52.078;5.070;2023-02-20T03:31:31;39.75;;;18.70;;
77598;SDS011;66758;52.078;5.070;2023-02-20T03:34:02;41.25;;;18.48;;
77598;SDS011;66758;52.078;5.070;2023-02-20T03:39:47;38.65;;;17.58;;
77598;SDS011;66758;52.078;5.070;2023-02-20T03:42:34;47.50;;;19.75;;
77598;SDS011;66758;52.078;5.070;2023-02-20T03:45:21;38.97;;;17.58;;
77598;SDS011;66758;52.078;5.070;2023-02-20T03:47:49;43.67;;;19.23;;
77598;SDS011;66758;52.078;5.070;2023-02-20T03:50:19;47.70;;;18.37;;
77598;SDS011;66758;52.078;5.070;2023-02-20T03:53:03;39.30;;;18.02;;
77598;SDS011;66758;52.078;5.070;2023-02-20T03:55:30;42.67;;;19.13;;
77598;SDS011;66758;52.078;5.070;2023-02-20T03:57:56;38.20;;;15.93;;
77598;SDS011;66758;52.078;5.070;2023-02-20T04:00:26;39.63;;;17.70;;
77598;SDS011;66758;52.078;5.070;2023-02-20T04:02:56;46.20;;;18.85;;
77598;SDS011;66758;52.078;5.070;2023-02-20T04:05:29;46.40;;;18.02;;
77598;SDS011;66758;52.078;5.070;2023-02-20T04:10:44;43.70;;;19.27;;
77598;SDS011;66758;52.078;5.070;2023-02-20T04:13:15;44.88;;;18.67;;
77598;SDS011;66758;52.078;5.070;2023-02-20T04:15:42;45.22;;;20.15;;
77598;SDS011;66758;52.078;5.070;2023-02-20T04:18:10;46.67;;;21.08;;
77598;SDS011;66758;52.078;5.070;2023-02-20T04:20:38;45.67;;;19.85;;
77598;SDS011;66758;52.078;5.070;2023-02-20T04:23:06;50.83;;;19.33;;
77598;SDS011;66758;52.078;5.070;2023-02-20T04:25:48;51.75;;;21.90;;
77598;SDS011;66758;52.078;5.070;2023-02-20T04:28:18;53.80;;;19.38;;
77598;SDS011;66758;52.078;5.070;2023-02-20T04:30:45;51.65;;;20.10;;
77598;SDS011;66758;52.078;5.070;2023-02-20T04:33:11;50.07;;;20.73;;
77598;SDS011;66758;52.078;5.070;2023-02-20T04:35:38;45.75;;;18.23;;
77598;SDS011;66758;52.078;5.070;2023-02-20T04:38:04;51.00;;;20.20;;
77598;SDS011;66758;52.078;5.070;2023-02-20T04:40:31;47.95;;;18.85;;
77598;SDS011;66758;52.078;5.070;2023-02-20T04:42:57;56.80;;;20.00;;
77598;SDS011;66758;52.078;5.070;2023-02-20T04:45:23;45.20;;;17.67;;
77598;SDS011;66758;52.078;5.070;2023-02-20T04:47:48;51.47;;;20.83;;
77598;SDS011;66758;52.078;5.070;2023-02-20T04:50:22;47.27;;;19.57;;
77598;SDS011;66758;52.078;5.070;2023-02-20T04:52:50;46.25;;;18.98;;
77598;SDS011;66758;52.078;5.070;2023-02-20T04:55:16;46.08;;;17.90;;
77598;SDS011;66758;52.078;5.070;2023-02-20T04:57:42;47.77;;;18.77;;
77598;SDS011;66758;52.078;5.070;2023-02-20T05:00:08;49.03;;;19.25;;
77598;SDS011;66758;52.078;5.070;2023-02-20T05:02:36;46.25;;;19.80;;
77598;SDS011;66758;52.078;5.070;2023-02-20T05:05:03;42.73;;;19.50;;
77598;SDS011;66758;52.078;5.070;2023-02-20T05:07:29;43.95;;;18.05;;
77598;SDS011;66758;52.078;5.070;2023-02-20T05:09:54;44.58;;;18.25;;
77598;SDS011;66758;52.078;5.070;2023-02-20T05:12:21;36.30;;;15.98;;
77598;SDS011;66758;52.078;5.070;2023-02-20T05:14:46;38.20;;;15.17;;
77598;SDS011;66758;52.078;5.070;2023-02-20T05:17:12;36.47;;;15.70;;
77598;SDS011;66758;52.078;5.070;2023-02-20T05:19:37;36.78;;;15.30;;
77598;SDS011;66758;52.078;5.070;2023-02-20T05:22:05;32.50;;;14.47;;
77598;SDS011;66758;52.078;5.070;2023-02-20T05:24:48;34.22;;;12.95;;
77598;SDS011;66758;52.078;5.070;2023-02-20T05:27:15;33.50;;;14.68;;
77598;SDS011;66758;52.078;5.070;2023-02-20T05:29:47;30.48;;;13.80;;
77598;SDS011;66758;52.078;5.070;2023-02-20T05:32:14;35.03;;;13.97;;
77598;SDS011;66758;52.078;5.070;2023-02-20T05:34:41;33.92;;;13.52;;
77598;SDS011;66758;52.078;5.070;2023-02-20T05:37:07;33.80;;;12.93;;
77598;SDS011;66758;52.078;5.070;2023-02-20T05:39:33;33.63;;;12.77;;
77598;SDS011;66758;52.078;5.070;2023-02-20T05:41:59;32.67;;;12.97;;
77598;SDS011;66758;52.078;5.070;2023-02-20T05:44:25;29.40;;;12.60;;
77598;SDS011;66758;52.078;5.070;2023-02-20T05:46:51;27.48;;;11.50;;
77598;SDS011;66758;52.078;5.070;2023-02-20T05:49:18;25.33;;;11.07;;
77598;SDS011;66758;52.078;5.070;2023-02-20T05:51:44;32.42;;;12.75;;
77598;SDS011;66758;52.078;5.070;2023-02-20T05:54:10;34.53;;;13.18;;
77598;SDS011;66758;52.078;5.070;2023-02-20T05:56:39;29.03;;;10.67;;
77598;SDS011;66758;52.078;5.070;2023-02-20T05:59:05;25.17;;;11.65;;
77598;SDS011;66758;52.078;5.070;2023-02-20T06:01:31;28.63;;;12.47;;
77598;SDS011;66758;52.078;5.070;2023-02-20T06:03:58;29.25;;;11.45;;
77598;SDS011;66758;52.078;5.070;2023-02-20T06:06:32;20.98;;;9.90;;
77598;SDS011;66758;52.078;5.070;2023-02-20T06:09:02;27.38;;;11.30;;
77598;SDS011;66758;52.078;5.070;2023-02-20T06:11:46;29.13;;;11.27;;
77598;SDS011;66758;52.078;5.070;2023-02-20T06:14:17;28.00;;;10.83;;
77598;SDS011;66758;52.078;5.070;2023-02-20T06:16:44;28.42;;;11.80;;
77598;SDS011;66758;52.078;5.070;2023-02-20T06:19:10;27.75;;;11.10;;
77598;SDS011;66758;52.078;5.070;2023-02-20T06:21:36;34.60;;;10.57;;
77598;SDS011;66758;52.078;5.070;2023-02-20T06:24:05;26.15;;;10.77;;
77598;SDS011;66758;52.078;5.070;2023-02-20T06:26:31;25.47;;;11.27;;
77598;SDS011;66758;52.078;5.070;2023-02-20T06:28:57;28.27;;;11.10;;
77598;SDS011;66758;52.078;5.070;2023-02-20T06:31:23;28.53;;;11.80;;
77598;SDS011;66758;52.078;5.070;2023-02-20T06:33:51;27.42;;;11.20;;
77598;SDS011;66758;52.078;5.070;2023-02-20T06:36:18;29.20;;;11.65;;
77598;SDS011;66758;52.078;5.070;2023-02-20T06:39:04;27.75;;;11.35;;
77598;SDS011;66758;52.078;5.070;2023-02-20T06:41:30;25.27;;;10.27;;
77598;SDS011;66758;52.078;5.070;2023-02-20T06:43:56;31.63;;;10.93;;
77598;SDS011;66758;52.078;5.070;2023-02-20T06:46:22;24.23;;;11.50;;
77598;SDS011;66758;52.078;5.070;2023-02-20T06:48:49;28.33;;;10.83;;
77598;SDS011;66758;52.078;5.070;2023-02-20T06:51:17;28.70;;;10.90;;
77598;SDS011;66758;52.078;5.070;2023-02-20T06:53:44;22.75;;;9.48;;
77598;SDS011;66758;52.078;5.070;2023-02-20T06:56:13;24.95;;;8.95;;
77598;SDS011;66758;52.078;5.070;2023-02-20T06:58:48;23.67;;;9.83;;
77598;SDS011;66758;52.078;5.070;2023-02-20T07:04:22;22.63;;;9.77;;
77598;SDS011;66758;52.078;5.070;2023-02-20T07:06:59;21.90;;;8.48;;
77598;SDS011;66758;52.078;5.070;2023-02-20T07:09:26;20.02;;;7.47;;
77598;SDS011;66758;52.078;5.070;2023-02-20T07:15:17;29.17;;;9.65;;
77598;SDS011;66758;52.078;5.070;2023-02-20T07:17:45;27.05;;;9.57;;
77598;SDS011;66758;52.078;5.070;2023-02-20T07:20:14;17.92;;;7.25;;
77598;SDS011;66758;52.078;5.070;2023-02-20T07:22:47;20.90;;;7.50;;
77598;SDS011;66758;52.078;5.070;2023-02-20T07:25:14;23.00;;;9.05;;
77598;SDS011;66758;52.078;5.070;2023-02-20T07:27:40;26.13;;;8.07;;
77598;SDS011;66758;52.078;5.070;2023-02-20T07:30:05;26.55;;;9.15;;
77598;SDS011;66758;52.078;5.070;2023-02-20T07:32:31;27.73;;;9.87;;
77598;SDS011;66758;52.078;5.070;2023-02-20T07:34:57;21.73;;;9.00;;
77598;SDS011;66758;52.078;5.070;2023-02-20T07:37:22;25.13;;;9.23;;
77598;SDS011;66758;52.078;5.070;2023-02-20T07:39:48;27.97;;;9.93;;
77598;SDS011;66758;52.078;5.070;2023-02-20T07:42:15;23.33;;;8.73;;
77598;SDS011;66758;52.078;5.070;2023-02-20T07:44:42;22.47;;;9.10;;
77598;SDS011;66758;52.078;5.070;2023-02-20T07:47:11;27.27;;;9.60;;
77598;SDS011;66758;52.078;5.070;2023-02-20T07:49:36;22.40;;;9.70;;
77598;SDS011;66758;52.078;5.070;2023-02-20T07:52:02;26.60;;;10.00;;
77598;SDS011;66758;52.078;5.070;2023-02-20T07:54:28;20.10;;;8.80;;
77598;SDS011;66758;52.078;5.070;2023-02-20T07:56:54;22.60;;;8.80;;
77598;SDS011;66758;52.078;5.070;2023-02-20T07:59:20;18.13;;;8.30;;
77598;SDS011;66758;52.078;5.070;2023-02-20T08:01:46;18.30;;;7.30;;
77598;SDS011;66758;52.078;5.070;2023-02-20T08:04:11;19.17;;;7.30;;
77598;SDS011;66758;52.078;5.070;2023-02-20T08:06:37;18.92;;;7.10;;
77598;SDS011;66758;52.078;5.070;2023-02-20T08:09:02;25.27;;;8.20;;
77598;SDS011;66758;52.078;5.070;2023-02-20T08:11:31;27.13;;;8.52;;
77598;SDS011;66758;52.078;5.070;2023-02-20T08:13:58;26.33;;;9.27;;
77598;SDS011;66758;52.078;5.070;2023-02-20T08:16:23;22.30;;;7.68;;
77598;SDS011;66758;52.078;5.070;2023-02-20T08:18:51;22.33;;;7.40;;
77598;SDS011;66758;52.078;5.070;2023-02-20T08:21:17;21.73;;;7.20;;
77598;SDS011;66758;52.078;5.070;2023-02-20T08:23:43;22.98;;;8.98;;
77598;SDS011;66758;52.078;5.070;2023-02-20T08:26:08;28.77;;;9.02;;
77598;SDS011;66758;52.078;5.070;2023-02-20T08:28:35;24.70;;;8.60;;
77598;SDS011;66758;52.078;5.070;2023-02-20T08:31:01;18.98;;;7.53;;
77598;SDS011;66758;52.078;5.070;2023-02-20T08:33:26;19.03;;;7.63;;
77598;SDS011;66758;52.078;5.070;2023-02-20T08:35:52;28.05;;;9.90;;
77598;SDS011;66758;52.078;5.070;2023-02-20T08:38:29;18.58;;;8.15;;
77598;SDS011;66758;52.078;5.070;2023-02-20T08:40:58;17.42;;;8.68;;
77598;SDS011;66758;52.078;5.070;2023-02-20T08:43:27;22.83;;;9.27;;
77598;SDS011;66758;52.078;5.070;2023-02-20T08:45:53;25.23;;;9.38;;
77598;SDS011;66758;52.078;5.070;2023-02-20T08:48:19;20.85;;;8.68;;
77598;SDS011;66758;52.078;5.070;2023-02-20T08:50:45;21.60;;;9.40;;
77598;SDS011;66758;52.078;5.070;2023-02-20T08:53:12;23.33;;;10.23;;
77598;SDS011;66758;52.078;5.070;2023-02-20T08:55:39;21.60;;;8.98;;
77598;SDS011;66758;52.078;5.070;2023-02-20T08:58:05;24.60;;;9.93;;
77598;SDS011;66758;52.078;5.070;2023-02-20T09:00:32;20.55;;;9.80;;
77598;SDS011;66758;52.078;5.070;2023-02-20T09:02:58;25.90;;;10.87;;
77598;SDS011;66758;52.078;5.070;2023-02-20T09:05:26;25.23;;;10.40;;
77598;SDS011;66758;52.078;5.070;2023-02-20T09:07:52;25.15;;;10.63;;
77598;SDS011;66758;52.078;5.070;2023-02-20T09:10:21;26.42;;;10.00;;
77598;SDS011;66758;52.078;5.070;2023-02-20T09:12:48;28.63;;;10.55;;
77598;SDS011;66758;52.078;5.070;2023-02-20T09:15:17;25.73;;;11.55;;
77598;SDS011;66758;52.078;5.070;2023-02-20T09:17:46;19.57;;;10.40;;
77598;SDS011;66758;52.078;5.070;2023-02-20T09:20:16;21.77;;;10.48;;
77598;SDS011;66758;52.078;5.070;2023-02-20T09:22:46;29.55;;;12.45;;
77598;SDS011;66758;52.078;5.070;2023-02-20T09:25:21;20.55;;;11.43;;
77598;SDS011;66758;52.078;5.070;2023-02-20T09:28:11;23.35;;;9.98;;
77598;SDS011;66758;52.078;5.070;2023-02-20T09:30:36;17.90;;;9.77;;
77598;SDS011;66758;52.078;5.070;2023-02-20T09:33:03;20.08;;;10.32;;
77598;SDS011;66758;52.078;5.070;2023-02-20T09:35:29;20.77;;;9.70;;
77598;SDS011;66758;52.078;5.070;2023-02-20T09:37:55;26.95;;;10.40;;
77598;SDS011;66758;52.078;5.070;2023-02-20T09:40:21;23.52;;;10.57;;
77598;SDS011;66758;52.078;5.070;2023-02-20T09:45:17;20.30;;;9.80;;
77598;SDS011;66758;52.078;5.070;2023-02-20T09:55:45;17.58;;;8.55;;
77598;SDS011;66758;52.078;5.070;2023-02-20T10:01:05;13.05;;;7.43;;
77598;SDS011;66758;52.078;5.070;2023-02-20T10:06:15;18.03;;;8.40;;
77598;SDS011;66758;52.078;5.070;2023-02-20T10:08:42;18.25;;;8.20;;
77598;SDS011;66758;52.078;5.070;2023-02-20T10:11:09;15.15;;;7.40;;
77598;SDS011;66758;52.078;5.070;2023-02-20T10:16:32;16.33;;;7.72;;
77598;SDS011;66758;52.078;5.070;2023-02-20T10:19:13;14.97;;;8.27;;
77598;SDS011;66758;52.078;5.070;2023-02-20T10:24:49;15.00;;;7.07;;
77598;SDS011;66758;52.078;5.070;2023-02-20T10:27:30;12.90;;;6.57;;
77598;SDS011;66758;52.078;5.070;2023-02-20T10:30:24;14.73;;;7.38;;
77598;SDS011;66758;52.078;5.070;2023-02-20T10:32:55;12.97;;;7.63;;
77598;SDS011;66758;52.078;5.070;2023-02-20T10:35:33;12.75;;;5.93;;
77598;SDS011;66758;52.078;5.070;2023-02-20T10:38:21;16.10;;;7.90;;
77598;SDS011;66758;52.078;5.070;2023-02-20T10:43:29;11.60;;;7.35;;
77598;SDS011;66758;52.078;5.070;2023-02-20T10:48:57;20.42;;;9.02;;
77598;SDS011;66758;52.078;5.070;2023-02-20T10:51:33;13.68;;;7.53;;
77598;SDS011;66758;52.078;5.070;2023-02-20T10:54:06;15.68;;;8.32;;
77598;SDS011;66758;52.078;5.070;2023-02-20T10:59:12;17.23;;;9.77;;
77598;SDS011;66758;52.078;5.070;2023-02-20T11:01:45;16.83;;;8.45;;
77598;SDS011;66758;52.078;5.070;2023-02-20T11:04:20;16.05;;;8.07;;
77598;SDS011;66758;52.078;5.070;2023-02-20T11:09:15;16.30;;;8.73;;
77598;SDS011;66758;52.078;5.070;2023-02-20T11:11:41;17.55;;;8.18;;
77598;SDS011;66758;52.078;5.070;2023-02-20T11:14:13;17.48;;;10.32;;
77598;SDS011;66758;52.078;5.070;2023-02-20T11:17:49;15.40;;;7.77;;
77598;SDS011;66758;52.078;5.070;2023-02-20T11:19:50;16.98;;;8.68;;
77598;SDS011;66758;52.078;5.070;2023-02-20T11:22:36;16.42;;;8.80;;
77598;SDS011;66758;52.078;5.070;2023-02-20T11:27:47;17.13;;;8.82;;
77598;SDS011;66758;52.078;5.070;2023-02-20T11:35:38;14.43;;;9.18;;
77598;SDS011;66758;52.078;5.070;2023-02-20T11:40:47;17.85;;;8.27;;
77598;SDS011;66758;52.078;5.070;2023-02-20T11:43:29;19.47;;;8.20;;
77598;SDS011;66758;52.078;5.070;2023-02-20T11:46:18;18.30;;;10.05;;
77598;SDS011;66758;52.078;5.070;2023-02-20T11:51:31;14.90;;;7.63;;
77598;SDS011;66758;52.078;5.070;2023-02-20T11:54:21;11.23;;;7.68;;
77598;SDS011;66758;52.078;5.070;2023-02-20T11:59:36;15.43;;;7.90;;
77598;SDS011;66758;52.078;5.070;2023-02-20T12:07:35;14.55;;;7.53;;
77598;SDS011;66758;52.078;5.070;2023-02-20T12:10:09;13.10;;;7.17;;
77598;SDS011;66758;52.078;5.070;2023-02-20T12:12:40;12.65;;;7.88;;
77598;SDS011;66758;52.078;5.070;2023-02-20T12:15:13;13.40;;;7.80;;
77598;SDS011;66758;52.078;5.070;2023-02-20T12:18:04;17.13;;;7.32;;
77598;SDS011;66758;52.078;5.070;2023-02-20T12:26:38;17.10;;;8.05;;
77598;SDS011;66758;52.078;5.070;2023-02-20T12:34:40;19.60;;;8.27;;
77598;SDS011;66758;52.078;5.070;2023-02-20T12:46:08;16.30;;;8.35;;
77598;SDS011;66758;52.078;5.070;2023-02-20T12:49:22;16.15;;;7.47;;
77598;SDS011;66758;52.078;5.070;2023-02-20T12:54:36;14.00;;;8.18;;
77598;SDS011;66758;52.078;5.070;2023-02-20T12:57:20;17.87;;;8.50;;
77598;SDS011;66758;52.078;5.070;2023-02-20T13:02:34;14.70;;;8.48;;
77598;SDS011;66758;52.078;5.070;2023-02-20T13:05:04;19.42;;;9.13;;
77598;SDS011;66758;52.078;5.070;2023-02-20T13:10:15;13.17;;;7.73;;
77598;SDS011;66758;52.078;5.070;2023-02-20T13:12:49;22.40;;;9.30;;
77598;SDS011;66758;52.078;5.070;2023-02-20T13:18:21;16.75;;;8.20;;
77598;SDS011;66758;52.078;5.070;2023-02-20T13:20:52;25.98;;;9.63;;
77598;SDS011;66758;52.078;5.070;2023-02-20T13:25:50;16.55;;;9.13;;
77598;SDS011;66758;52.078;5.070;2023-02-20T13:33:34;17.10;;;10.65;;
77598;SDS011;66758;52.078;5.070;2023-02-20T13:36:01;14.70;;;9.37;;
77598;SDS011;66758;52.078;5.070;2023-02-20T13:38:28;16.63;;;8.85;;
77598;SDS011;66758;52.078;5.070;2023-02-20T13:58:41;15.30;;;8.77;;
77598;SDS011;66758;52.078;5.070;2023-02-20T14:01:08;17.93;;;9.73;;
77598;SDS011;66758;52.078;5.070;2023-02-20T14:03:34;17.98;;;9.68;;
77598;SDS011;66758;52.078;5.070;2023-02-20T14:06:04;21.02;;;10.07;;
77598;SDS011;66758;52.078;5.070;2023-02-20T14:08:44;19.10;;;9.47;;
77598;SDS011;66758;52.078;5.070;2023-02-20T14:11:13;20.10;;;9.93;;
77598;SDS011;66758;52.078;5.070;2023-02-20T14:13:48;16.33;;;9.43;;
77598;SDS011;66758;52.078;5.070;2023-02-20T14:16:34;18.02;;;9.27;;
77598;SDS011;66758;52.078;5.070;2023-02-20T14:19:25;18.17;;;8.52;;
77598;SDS011;66758;52.078;5.070;2023-02-20T14:21:50;19.10;;;8.60;;
77598;SDS011;66758;52.078;5.070;2023-02-20T14:27:01;19.13;;;10.93;;
77598;SDS011;66758;52.078;5.070;2023-02-20T14:29:31;16.63;;;10.48;;
77598;SDS011;66758;52.078;5.070;2023-02-20T14:32:01;19.55;;;10.50;;
77598;SDS011;66758;52.078;5.070;2023-02-20T14:34:36;22.00;;;9.80;;
77598;SDS011;66758;52.078;5.070;2023-02-20T14:40:41;16.45;;;9.52;;
77598;SDS011;66758;52.078;5.070;2023-02-20T14:43:14;22.75;;;10.38;;
77598;SDS011;66758;52.078;5.070;2023-02-20T14:46:49;16.98;;;9.60;;
77598;SDS011;66758;52.078;5.070;2023-02-20T14:48:49;13.53;;;8.67;;
77598;SDS011;66758;52.078;5.070;2023-02-20T14:51:47;17.17;;;9.45;;
77598;SDS011;66758;52.078;5.070;2023-02-20T14:56:57;19.38;;;10.95;;
77598;SDS011;66758;52.078;5.070;2023-02-20T14:59:34;20.03;;;10.17;;
77598;SDS011;66758;52.078;5.070;2023-02-20T15:04:54;17.80;;;10.88;;
77598;SDS011;66758;52.078;5.070;2023-02-20T15:07:26;22.58;;;11.40;;
77598;SDS011;66758;52.078;5.070;2023-02-20T15:09:54;19.15;;;11.45;;
77598;SDS011;66758;52.078;5.070;2023-02-20T15:12:27;22.77;;;10.60;;
77598;SDS011;66758;52.078;5.070;2023-02-20T15:15:05;19.30;;;10.60;;
77598;SDS011;66758;52.078;5.070;2023-02-20T15:17:33;18.15;;;10.27;;
77598;SDS011;66758;52.078;5.070;2023-02-20T15:20:14;18.08;;;11.68;;
77598;SDS011;66758;52.078;5.070;2023-02-20T15:23:22;18.55;;;9.75;;
77598;SDS011;66758;52.078;5.070;2023-02-20T15:25:53;16.10;;;11.07;;
77598;SDS011;66758;52.078;5.070;2023-02-20T15:33:35;18.40;;;10.15;;
77598;SDS011;66758;52.078;5.070;2023-02-20T15:36:03;17.60;;;10.05;;
77598;SDS011;66758;52.078;5.070;2023-02-20T15:38:32;14.48;;;10.30;;
77598;SDS011;66758;52.078;5.070;2023-02-20T15:41:01;15.05;;;8.68;;
77598;SDS011;66758;52.078;5.070;2023-02-20T15:43:28;14.63;;;9.87;;
77598;SDS011;66758;52.078;5.070;2023-02-20T15:45:53;15.30;;;9.70;;
77598;SDS011;66758;52.078;5.070;2023-02-20T15:48:20;16.95;;;9.35;;
77598;SDS011;66758;52.078;5.070;2023-02-20T15:50:46;18.37;;;10.07;;
77598;SDS011;66758;52.078;5.070;2023-02-20T15:53:22;16.17;;;9.82;;
77598;SDS011;66758;52.078;5.070;2023-02-20T15:55:52;20.77;;;10.52;;
77598;SDS011;66758;52.078;5.070;2023-02-20T15:58:26;17.63;;;11.52;;
77598;SDS011;66758;52.078;5.070;2023-02-20T16:00:54;16.13;;;10.70;;
77598;SDS011;66758;52.078;5.070;2023-02-20T16:03:21;16.00;;;10.77;;
77598;SDS011;66758;52.078;5.070;2023-02-20T16:05:48;17.92;;;11.05;;
77598;SDS011;66758;52.078;5.070;2023-02-20T16:08:14;16.77;;;11.25;;
77598;SDS011;66758;52.078;5.070;2023-02-20T16:10:40;19.95;;;10.13;;
77598;SDS011;66758;52.078;5.070;2023-02-20T16:13:07;22.83;;;12.03;;
77598;SDS011;66758;52.078;5.070;2023-02-20T16:18:46;18.15;;;11.52;;
77598;SDS011;66758;52.078;5.070;2023-02-20T16:21:12;21.47;;;11.60;;
77598;SDS011;66758;52.078;5.070;2023-02-20T16:23:39;17.15;;;10.60;;
77598;SDS011;66758;52.078;5.070;2023-02-20T16:26:07;18.75;;;10.80;;
77598;SDS011;66758;52.078;5.070;2023-02-20T16:28:33;16.73;;;10.13;;
77598;SDS011;66758;52.078;5.070;2023-02-20T16:30:59;17.23;;;11.60;;
77598;SDS011;66758;52.078;5.070;2023-02-20T16:33:24;19.98;;;10.80;;
77598;SDS011;66758;52.078;5.070;2023-02-20T16:35:50;19.70;;;11.13;;
77598;SDS011;66758;52.078;5.070;2023-02-20T16:38:17;22.58;;;12.13;;
77598;SDS011;66758;52.078;5.070;2023-02-20T16:40:43;20.40;;;10.77;;
77598;SDS011;66758;52.078;5.070;2023-02-20T16:43:19;19.65;;;11.27;;
77598;SDS011;66758;52.078;5.070;2023-02-20T16:45:49;18.70;;;11.13;;
77598;SDS011;66758;52.078;5.070;2023-02-20T16:48:15;16.48;;;10.85;;
77598;SDS011;66758;52.078;5.070;2023-02-20T16:50:43;16.63;;;10.98;;
77598;SDS011;66758;52.078;5.070;2023-02-20T16:53:11;24.55;;;11.15;;
77598;SDS011;66758;52.078;5.070;2023-02-20T16:55:37;17.10;;;11.07;;
77598;SDS011;66758;52.078;5.070;2023-02-20T16:58:06;20.02;;;11.27;;
77598;SDS011;66758;52.078;5.070;2023-02-20T17:00:33;19.58;;;12.63;;
77598;SDS011;66758;52.078;5.070;2023-02-20T17:03:00;17.48;;;12.00;;
77598;SDS011;66758;52.078;5.070;2023-02-20T17:05:30;20.90;;;11.50;;
77598;SDS011;66758;52.078;5.070;2023-02-20T17:07:57;29.45;;;14.18;;
77598;SDS011;66758;52.078;5.070;2023-02-20T17:10:23;25.58;;;13.05;;
77598;SDS011;66758;52.078;5.070;2023-02-20T17:12:54;22.00;;;12.88;;
77598;SDS011;66758;52.078;5.070;2023-02-20T17:15:26;16.63;;;10.32;;
77598;SDS011;66758;52.078;5.070;2023-02-20T17:17:52;19.37;;;12.70;;
77598;SDS011;66758;52.078;5.070;2023-02-20T17:20:27;21.65;;;11.73;;
77598;SDS011;66758;52.078;5.070;2023-02-20T17:22:53;18.92;;;12.35;;
77598;SDS011;66758;52.078;5.070;2023-02-20T17:25:20;20.87;;;12.33;;
77598;SDS011;66758;52.078;5.070;2023-02-20T17:27:48;23.40;;;13.00;;
77598;SDS011;66758;52.078;5.070;2023-02-20T17:30:14;21.48;;;14.18;;
77598;SDS011;66758;52.078;5.070;2023-02-20T17:32:41;24.70;;;13.03;;
77598;SDS011;66758;52.078;5.070;2023-02-20T17:35:07;20.85;;;13.07;;
77598;SDS011;66758;52.078;5.070;2023-02-20T17:37:33;21.60;;;14.35;;
77598;SDS011;66758;52.078;5.070;2023-02-20T17:39:59;21.07;;;12.33;;
77598;SDS011;66758;52.078;5.070;2023-02-20T17:42:25;20.80;;;12.70;;